createdAt,value
2022-12-01T00:02:19.849Z,6.12
2022-12-01T00:04:48.073Z,6.09
2022-12-01T00:07:14.458Z,6.06
2022-12-01T00:09:59.460Z,5.99
2022-12-01T00:12:25.757Z,5.90
2022-12-01T00:14:54.988Z,5.90
2022-12-01T00:17:21.501Z,5.90
2022-12-01T00:19:48.108Z,5.86
2022-12-01T00:22:14.574Z,5.81
2022-12-01T00:24:40.856Z,5.77
2022-12-01T00:27:07.240Z,5.84
2022-12-01T00:29:33.541Z,5.85
2022-12-01T00:31:59.993Z,5.81
2022-12-01T00:34:28.009Z,5.82
2022-12-01T00:36:54.357Z,5.85
2022-12-01T00:39:20.759Z,5.84
2022-12-01T00:41:47.092Z,5.82
2022-12-01T00:44:13.398Z,5.78
2022-12-01T00:46:39.814Z,5.76
2022-12-01T00:49:06.263Z,5.79
2022-12-01T00:51:32.835Z,5.78
2022-12-01T00:53:59.168Z,5.78
2022-12-01T00:56:25.504Z,5.87
2022-12-01T00:58:51.846Z,5.84
2022-12-01T01:01:18.197Z,5.93
2022-12-01T01:03:44.532Z,5.83
2022-12-01T01:06:12.161Z,5.85
2022-12-01T01:08:39.757Z,5.79
2022-12-01T01:11:07.156Z,5.74
2022-12-01T01:13:34.787Z,5.73
2022-12-01T01:16:13.209Z,5.73
2022-12-01T01:18:39.515Z,5.68
2022-12-01T01:21:08.712Z,5.58
2022-12-01T01:23:35.115Z,5.52
2022-12-01T01:26:06.995Z,5.51
2022-12-01T01:28:33.588Z,5.41
2022-12-01T01:31:00.183Z,5.35
2022-12-01T01:33:26.480Z,5.22
2022-12-01T01:35:52.807Z,5.15
2022-12-01T01:38:19.153Z,5.08
2022-12-01T01:40:46.726Z,5.06
2022-12-01T01:43:18.210Z,5.02
2022-12-01T01:45:44.642Z,5.02
2022-12-01T01:48:13.524Z,4.98
2022-12-01T01:50:40.136Z,4.93
2022-12-01T01:53:10.618Z,4.90
2022-12-01T01:55:37.058Z,4.94
2022-12-01T01:58:07.764Z,4.88
2022-12-01T02:00:34.173Z,4.82
2022-12-01T02:03:00.636Z,4.78
2022-12-01T02:05:30.847Z,4.86
2022-12-01T02:07:59.400Z,4.70
2022-12-01T02:10:49.163Z,4.63
2022-12-01T02:13:38.697Z,4.59
2022-12-01T02:16:23.091Z,4.59
2022-12-01T02:18:59.992Z,4.54
2022-12-01T02:21:53.930Z,4.53
2022-12-01T02:24:30.065Z,4.47
2022-12-01T02:27:07.599Z,4.48
2022-12-01T02:30:04.302Z,4.48
2022-12-01T02:32:41.537Z,4.52
2022-12-01T02:35:17.173Z,4.56
2022-12-01T02:37:59.237Z,4.56
2022-12-01T02:40:31.943Z,4.58
2022-12-01T02:43:04.829Z,4.58
2022-12-01T02:45:49.017Z,4.53
2022-12-01T02:48:22.381Z,4.53
2022-12-01T02:50:50.831Z,4.63
2022-12-01T02:53:19.419Z,4.63
2022-12-01T02:55:53.572Z,4.82
2022-12-01T02:58:20.971Z,4.73
2022-12-01T03:01:07.706Z,4.69
2022-12-01T03:03:54.053Z,4.76
2022-12-01T03:06:36.574Z,4.74
2022-12-01T03:09:26.998Z,4.69
2022-12-01T03:12:23.365Z,4.71
2022-12-01T03:15:03.183Z,4.69
2022-12-01T03:17:38.490Z,4.80
2022-12-01T03:20:12.671Z,4.73
2022-12-01T03:22:51.073Z,4.77
2022-12-01T03:25:19.761Z,4.78
2022-12-01T03:28:19.363Z,4.70
2022-12-01T03:30:37.684Z,4.83
2022-12-01T03:33:09.686Z,4.76
2022-12-01T03:35:45.767Z,4.77
2022-12-01T03:38:21.697Z,4.83
2022-12-01T03:40:51.109Z,4.76
2022-12-01T03:43:25.809Z,4.69
2022-12-01T03:46:01.085Z,4.71
2022-12-01T03:48:28.124Z,4.70
2022-12-01T03:51:13.873Z,4.65
2022-12-01T03:54:00.303Z,4.60
2022-12-01T03:56:32.156Z,4.57
2022-12-01T03:59:02.747Z,4.59
2022-12-01T04:01:33.859Z,4.69
2022-12-01T04:04:07.105Z,4.61
2022-12-01T04:06:34.048Z,4.57
2022-12-01T04:09:00.354Z,4.64
2022-12-01T04:11:45.209Z,4.69
2022-12-01T04:14:11.544Z,4.71
2022-12-01T04:16:37.893Z,4.68
2022-12-01T04:19:04.194Z,4.70
2022-12-01T04:21:30.514Z,4.64
2022-12-01T04:24:02.725Z,4.71
2022-12-01T04:26:35.269Z,4.66
2022-12-01T04:29:04.141Z,4.57
2022-12-01T04:31:31.229Z,4.60
2022-12-01T04:33:58.869Z,4.55
2022-12-01T04:36:26.256Z,4.54
2022-12-01T04:38:52.723Z,4.54
2022-12-01T04:41:19.044Z,4.51
2022-12-01T04:43:45.435Z,4.48
2022-12-01T04:46:12.110Z,4.51
2022-12-01T04:48:41.050Z,4.51
2022-12-01T04:51:09.003Z,4.49
2022-12-01T04:53:36.353Z,4.53
2022-12-01T04:56:03.343Z,4.49
2022-12-01T04:58:31.131Z,4.47
2022-12-01T05:01:06.017Z,4.47
2022-12-01T05:03:35.756Z,4.42
2022-12-01T05:06:08.255Z,4.40
2022-12-01T05:08:34.597Z,4.37
2022-12-01T05:11:01.121Z,4.40
2022-12-01T05:13:28.346Z,4.38
2022-12-01T05:16:03.586Z,4.31
2022-12-01T05:18:30.028Z,4.32
2022-12-01T05:20:59.059Z,4.30
2022-12-01T05:23:26.970Z,4.30
2022-12-01T05:25:54.182Z,4.25
2022-12-01T05:28:21.440Z,4.21
2022-12-01T05:30:49.102Z,4.25
2022-12-01T05:33:17.563Z,4.23
2022-12-01T05:35:44.517Z,4.18
2022-12-01T05:38:11.039Z,4.17
2022-12-01T05:40:37.785Z,4.15
2022-12-01T05:43:04.409Z,4.17
2022-12-01T05:45:31.130Z,4.18
2022-12-01T05:47:58.877Z,4.19
2022-12-01T05:50:26.424Z,4.26
2022-12-01T05:52:52.825Z,4.22
2022-12-01T05:55:19.263Z,4.27
2022-12-01T05:57:45.795Z,4.22
2022-12-01T06:00:13.497Z,4.21
2022-12-01T06:02:41.099Z,4.21
2022-12-01T06:05:08.336Z,4.19
2022-12-01T06:07:35.670Z,4.21
2022-12-01T06:10:02.654Z,4.21
2022-12-01T06:12:28.996Z,4.19
2022-12-01T06:14:55.378Z,4.17
2022-12-01T06:17:21.723Z,4.07
2022-12-01T06:19:48.413Z,3.99
2022-12-01T06:22:14.987Z,3.98
2022-12-01T06:24:41.301Z,3.90
2022-12-01T06:27:07.631Z,3.88
2022-12-01T06:29:36.650Z,3.83
2022-12-01T06:32:07.110Z,3.83
2022-12-01T06:34:33.550Z,3.86
2022-12-01T06:36:59.884Z,3.82
2022-12-01T06:39:26.214Z,3.89
2022-12-01T06:41:52.897Z,3.84
2022-12-01T06:44:19.309Z,3.84
2022-12-01T06:46:45.663Z,3.86
2022-12-01T06:49:12.542Z,3.88
2022-12-01T06:51:39.439Z,3.86
2022-12-01T06:54:05.974Z,3.89
2022-12-01T06:56:32.308Z,3.87
2022-12-01T06:58:58.939Z,3.92
2022-12-01T07:01:26.016Z,3.92
2022-12-01T07:03:52.377Z,3.92
2022-12-01T07:06:18.689Z,4.06
2022-12-01T07:08:45.085Z,3.97
2022-12-01T07:11:14.034Z,3.96
2022-12-01T07:13:41.880Z,3.89
2022-12-01T07:16:09.456Z,3.86
2022-12-01T07:18:37.001Z,3.82
2022-12-01T07:21:06.032Z,3.86
2022-12-01T07:23:32.865Z,3.88
2022-12-01T07:26:13.550Z,3.91
2022-12-01T07:28:40.260Z,3.94
2022-12-01T07:31:18.932Z,3.87
2022-12-01T07:33:45.538Z,3.91
2022-12-01T07:36:12.861Z,3.99
2022-12-01T07:38:39.825Z,3.98
2022-12-01T07:41:14.969Z,3.98
2022-12-01T07:43:42.158Z,3.96
2022-12-01T07:46:09.919Z,4.01
2022-12-01T07:48:37.676Z,4.18
2022-12-01T07:51:06.042Z,4.16
2022-12-01T07:53:32.513Z,4.12
2022-12-01T07:56:02.086Z,4.15
2022-12-01T07:58:32.770Z,4.24
2022-12-01T08:01:05.006Z,4.24
2022-12-01T08:03:31.425Z,4.28
2022-12-01T08:05:59.026Z,4.43
2022-12-01T08:08:25.783Z,4.39
2022-12-01T08:10:53.402Z,4.35
2022-12-01T08:13:20.746Z,4.42
2022-12-01T08:15:47.211Z,4.48
2022-12-01T08:18:13.581Z,4.41
2022-12-01T08:20:39.858Z,4.37
2022-12-01T08:23:08.022Z,4.37
2022-12-01T08:25:34.413Z,4.29
2022-12-01T08:28:01.581Z,4.29
2022-12-01T08:30:28.586Z,4.34
2022-12-01T08:32:56.681Z,4.25
2022-12-01T08:35:24.054Z,4.23
2022-12-01T08:37:54.361Z,4.25
2022-12-01T08:40:21.766Z,4.09
2022-12-01T08:42:48.096Z,4.08
2022-12-01T08:45:14.647Z,4.09
2022-12-01T08:47:41.009Z,4.05
2022-12-01T08:50:07.867Z,4.02
2022-12-01T08:52:35.129Z,4.03
2022-12-01T08:55:01.969Z,4.09
2022-12-01T08:57:31.464Z,4.18
2022-12-01T08:59:57.826Z,4.05
2022-12-01T09:02:24.740Z,4.11
2022-12-01T09:04:51.382Z,4.22
2022-12-01T09:07:24.591Z,4.18
2022-12-01T09:09:53.010Z,4.23
2022-12-01T09:12:19.690Z,4.21
2022-12-01T09:14:48.259Z,4.20
2022-12-01T09:17:16.161Z,4.18
2022-12-01T09:19:43.843Z,4.25
2022-12-01T09:22:11.751Z,4.19
2022-12-01T09:24:38.418Z,4.25
2022-12-01T09:27:05.323Z,4.28
2022-12-01T09:29:32.300Z,4.28
2022-12-01T09:32:00.288Z,4.35
2022-12-01T09:34:28.844Z,4.37
2022-12-01T09:36:57.535Z,4.48
2022-12-01T09:39:24.096Z,4.54
2022-12-01T09:41:55.864Z,4.60
2022-12-01T09:44:35.906Z,4.65
2022-12-01T09:47:19.119Z,4.75
2022-12-01T09:50:03.439Z,4.77
2022-12-01T09:52:39.793Z,4.86
2022-12-01T09:55:12.888Z,4.99
2022-12-01T09:57:40.769Z,4.96
2022-12-01T10:00:15.164Z,4.92
2022-12-01T10:02:52.232Z,4.90
2022-12-01T10:05:20.934Z,5.06
2022-12-01T10:07:56.328Z,5.06
2022-12-01T10:10:34.464Z,5.16
2022-12-01T10:13:00.768Z,5.20
2022-12-01T10:15:46.517Z,5.39
2022-12-01T10:18:20.824Z,5.35
2022-12-01T10:21:11.845Z,5.55
2022-12-01T10:23:56.982Z,5.68
2022-12-01T10:26:50.055Z,5.84
2022-12-01T10:29:47.217Z,5.82
2022-12-01T10:32:17.937Z,5.86
2022-12-01T10:34:46.603Z,5.92
2022-12-01T10:37:19.072Z,6.00
2022-12-01T10:39:48.686Z,5.96
2022-12-01T10:42:39.653Z,5.98
2022-12-01T10:45:14.164Z,5.99
2022-12-01T10:48:15.634Z,5.82
2022-12-01T10:50:47.533Z,5.86
2022-12-01T10:53:22.967Z,5.84
2022-12-01T10:56:03.585Z,5.75
2022-12-01T10:58:33.604Z,5.69
2022-12-01T11:01:05.777Z,5.66
2022-12-01T11:03:34.931Z,5.71
2022-12-01T11:06:05.662Z,5.71
2022-12-01T11:08:38.848Z,5.71
2022-12-01T11:11:05.213Z,5.72
2022-12-01T11:13:35.539Z,5.70
2022-12-01T11:16:05.854Z,5.73
2022-12-01T11:18:37.992Z,5.71
2022-12-01T11:21:10.395Z,5.60
2022-12-01T11:23:50.694Z,5.67
2022-12-01T11:26:25.514Z,5.70
2022-12-01T11:28:53.326Z,5.73
2022-12-01T11:31:21.652Z,5.81
2022-12-01T11:33:53.556Z,5.79
2022-12-01T11:36:42.629Z,5.84
2022-12-01T11:39:23.487Z,5.81
2022-12-01T11:41:55.880Z,5.79
2022-12-01T11:44:49.732Z,5.77
2022-12-01T11:47:24.813Z,5.80
2022-12-01T11:50:13.098Z,5.73
2022-12-01T11:52:49.111Z,5.75
2022-12-01T11:55:15.484Z,5.77
2022-12-01T11:57:48.033Z,5.79
2022-12-01T12:00:23.662Z,5.79
2022-12-01T12:03:18.723Z,5.87
2022-12-01T12:05:51.450Z,5.94
2022-12-01T12:08:26.446Z,5.99
2022-12-01T12:11:12.025Z,6.15
2022-12-01T12:14:00.538Z,6.18
2022-12-01T12:19:25.418Z,6.19
2022-12-01T12:22:00.430Z,6.19
2022-12-01T12:24:37.266Z,6.29
2022-12-01T12:27:18.296Z,6.33
2022-12-01T12:30:01.887Z,6.38
2022-12-01T12:33:17.738Z,6.32
2022-12-01T12:36:07.406Z,6.21
2022-12-01T12:39:16.437Z,6.16
2022-12-01T12:41:50.331Z,6.02
2022-12-01T12:44:49.546Z,5.89
2022-12-01T12:47:49.585Z,5.82
2022-12-01T12:50:41.608Z,5.81
2022-12-01T12:53:17.798Z,5.97
2022-12-01T12:55:48.975Z,5.86
2022-12-01T12:58:24.137Z,5.85
2022-12-01T13:00:57.905Z,5.82
2022-12-01T13:04:15.593Z,5.90
2022-12-01T13:06:48.750Z,5.95
2022-12-01T13:09:26.142Z,6.01
2022-12-01T13:12:04.603Z,6.15
2022-12-01T13:14:38.439Z,6.22
2022-12-01T13:17:30.661Z,6.29
2022-12-01T13:19:57.068Z,6.22
2022-12-01T13:22:30.763Z,6.36
2022-12-01T13:24:57.148Z,6.46
2022-12-01T13:27:27.141Z,6.44
2022-12-01T13:29:55.879Z,6.60
2022-12-01T13:32:34.900Z,6.55
2022-12-01T13:35:06.239Z,6.50
2022-12-01T13:37:38.177Z,6.53
2022-12-01T13:40:19.957Z,6.51
2022-12-01T13:43:10.360Z,6.53
2022-12-01T13:45:39.841Z,6.52
2022-12-01T13:48:25.010Z,6.49
2022-12-01T13:51:02.705Z,6.59
2022-12-01T13:53:30.358Z,6.59
2022-12-01T13:56:03.775Z,6.58
2022-12-01T13:58:32.996Z,6.62
2022-12-01T14:01:25.796Z,6.63
2022-12-01T14:03:57.953Z,6.74
2022-12-01T14:06:38.417Z,6.71
2022-12-01T14:09:16.581Z,6.76
2022-12-01T14:11:56.841Z,6.82
2022-12-01T14:14:26.401Z,6.71
2022-12-01T14:16:55.347Z,6.56
2022-12-01T14:19:43.308Z,6.51
2022-12-01T14:22:40.436Z,6.55
2022-12-01T14:25:22.445Z,6.54
2022-12-01T14:27:52.715Z,6.64
2022-12-01T14:30:46.769Z,6.65
2022-12-01T14:33:51.192Z,6.42
2022-12-01T14:36:17.526Z,6.35
2022-12-01T14:38:46.069Z,6.32
2022-12-01T14:41:27.243Z,6.26
2022-12-01T14:44:03.644Z,6.10
2022-12-01T14:46:39.500Z,6.07
2022-12-01T14:49:11.221Z,5.87
2022-12-01T14:51:41.896Z,5.89
2022-12-01T14:54:17.867Z,5.80
2022-12-01T14:56:47.908Z,5.82
2022-12-01T14:59:21.792Z,5.69
2022-12-01T15:01:51.522Z,5.63
2022-12-01T15:04:18.163Z,5.51
2022-12-01T15:06:44.996Z,5.45
2022-12-01T15:09:34.460Z,5.33
2022-12-01T15:12:07.086Z,5.44
2022-12-01T15:14:36.460Z,5.33
2022-12-01T15:17:05.367Z,5.19
2022-12-01T15:19:40.145Z,5.14
2022-12-01T15:22:13.742Z,5.08
2022-12-01T15:24:40.692Z,4.95
2022-12-01T15:27:25.147Z,4.97
2022-12-01T15:29:52.309Z,4.89
2022-12-01T15:32:21.495Z,4.85
2022-12-01T15:34:52.136Z,4.77
2022-12-01T15:37:24.492Z,4.76
2022-12-01T15:43:02.846Z,4.62
2022-12-01T15:45:29.250Z,4.50
2022-12-01T15:47:55.792Z,4.51
2022-12-01T15:50:42.687Z,4.52
2022-12-01T15:53:25.753Z,4.51
2022-12-01T15:55:58.611Z,4.47
2022-12-01T15:58:30.144Z,4.40
2022-12-01T16:01:02.258Z,4.32
2022-12-01T16:03:29.028Z,4.25
2022-12-01T16:06:00.063Z,4.28
2022-12-01T16:08:28.080Z,4.16
2022-12-01T16:11:13.984Z,4.16
2022-12-01T16:13:59.643Z,4.12
2022-12-01T16:16:46.304Z,4.08
2022-12-01T16:19:12.619Z,4.09
2022-12-01T16:21:51.860Z,4.04
2022-12-01T16:24:22.496Z,4.03
2022-12-01T16:26:55.892Z,4.04
2022-12-01T16:29:24.577Z,3.98
2022-12-01T16:32:18.813Z,3.93
2022-12-01T16:34:46.237Z,3.88
2022-12-01T16:37:13.696Z,3.92
2022-12-01T16:39:40.041Z,3.86
2022-12-01T16:42:06.629Z,3.77
2022-12-01T16:44:33.034Z,3.67
2022-12-01T16:46:59.367Z,3.74
2022-12-01T16:49:25.726Z,3.58
2022-12-01T16:51:56.801Z,3.64
2022-12-01T16:54:23.736Z,3.63
2022-12-01T16:56:50.878Z,3.76
2022-12-01T16:59:17.171Z,3.76
2022-12-01T17:01:43.555Z,3.83
2022-12-01T17:04:09.897Z,3.74
2022-12-01T17:06:38.209Z,3.70
2022-12-01T17:09:04.981Z,3.71
2022-12-01T17:11:32.077Z,3.63
2022-12-01T17:13:58.406Z,3.70
2022-12-01T17:16:24.784Z,3.75
2022-12-01T17:18:51.181Z,3.79
2022-12-01T17:21:17.558Z,3.78
2022-12-01T17:23:43.934Z,3.78
2022-12-01T17:26:14.923Z,3.82
2022-12-01T17:28:41.322Z,3.95
2022-12-01T17:31:08.999Z,3.94
2022-12-01T17:33:35.925Z,3.91
2022-12-01T17:36:05.083Z,3.89
2022-12-01T17:38:35.930Z,3.87
2022-12-01T17:41:03.382Z,3.61
2022-12-01T17:43:29.841Z,3.81
2022-12-01T17:45:56.359Z,3.76
2022-12-01T17:48:22.705Z,3.74
2022-12-01T17:50:49.021Z,3.64
2022-12-01T17:53:15.329Z,3.63
2022-12-01T17:55:41.727Z,3.57
2022-12-01T17:58:08.069Z,3.55
2022-12-01T18:00:34.382Z,3.48
2022-12-01T18:03:00.765Z,3.54
2022-12-01T18:05:29.186Z,3.53
2022-12-01T18:07:55.710Z,3.59
2022-12-01T18:10:22.027Z,3.53
2022-12-01T18:12:48.312Z,3.47
2022-12-01T18:15:14.693Z,3.44
2022-12-01T18:17:40.977Z,3.52
2022-12-01T18:20:08.233Z,3.41
2022-12-01T18:22:34.546Z,3.40
2022-12-01T18:25:00.884Z,3.32
2022-12-01T18:27:27.222Z,3.27
2022-12-01T18:29:53.576Z,3.20
2022-12-01T18:32:19.957Z,3.04
2022-12-01T18:34:46.610Z,3.03
2022-12-01T18:37:13.213Z,3.06
2022-12-01T18:39:39.550Z,3.07
2022-12-01T18:42:06.062Z,2.96
2022-12-01T18:44:32.453Z,2.98
2022-12-01T18:46:59.052Z,2.95
2022-12-01T18:49:25.575Z,2.79
2022-12-01T18:51:51.993Z,2.62
2022-12-01T18:54:18.389Z,2.48
2022-12-01T18:56:44.947Z,2.34
2022-12-01T18:59:12.828Z,2.25
2022-12-01T19:01:43.885Z,2.20
2022-12-01T19:04:10.881Z,2.14
2022-12-01T19:06:39.478Z,2.11
2022-12-01T19:09:08.930Z,2.01
2022-12-01T19:11:35.804Z,1.89
2022-12-01T19:14:03.406Z,1.78
2022-12-01T19:16:30.991Z,1.63
2022-12-01T19:19:00.084Z,1.57
2022-12-01T19:21:26.515Z,1.48
2022-12-01T19:23:53.311Z,1.41
2022-12-01T19:26:21.757Z,1.29
2022-12-01T19:28:48.959Z,1.31
2022-12-01T19:31:18.472Z,1.25
2022-12-01T19:33:45.240Z,1.25
2022-12-01T19:36:14.258Z,1.18
2022-12-01T19:38:41.503Z,1.17
2022-12-01T19:41:09.459Z,1.11
2022-12-01T19:43:36.988Z,1.06
2022-12-01T19:46:08.592Z,1.01
2022-12-01T19:48:35.521Z,0.98
2022-12-01T19:51:01.980Z,1.01
2022-12-01T19:53:33.271Z,1.14
2022-12-01T19:56:04.875Z,1.04
2022-12-01T19:58:34.529Z,1.04
2022-12-01T20:01:05.285Z,0.99
2022-12-01T20:03:31.674Z,1.03
2022-12-01T20:06:06.365Z,1.20
2022-12-01T20:08:35.942Z,1.21
2022-12-01T20:11:04.097Z,1.22
2022-12-01T20:13:37.953Z,1.23
2022-12-01T20:16:08.016Z,1.25
2022-12-01T20:18:34.759Z,1.29
2022-12-01T20:21:10.188Z,1.35
2022-12-01T20:23:37.097Z,1.42
2022-12-01T20:26:07.440Z,1.46
2022-12-01T20:28:35.229Z,1.65
2022-12-01T20:31:02.456Z,1.65
2022-12-01T20:33:29.112Z,1.69
2022-12-01T20:35:55.557Z,1.71
2022-12-01T20:38:27.226Z,1.68
2022-12-01T20:40:54.149Z,1.76
2022-12-01T20:43:22.004Z,1.76
2022-12-01T20:45:48.466Z,1.83
2022-12-01T20:48:15.226Z,1.87
2022-12-01T20:50:41.733Z,1.95
2022-12-01T20:53:08.167Z,2.00
2022-12-01T20:55:36.658Z,1.99
2022-12-01T20:58:04.814Z,2.07
2022-12-01T21:00:31.850Z,2.11
2022-12-01T21:02:58.242Z,2.13
2022-12-01T21:05:25.461Z,2.15
2022-12-01T21:07:51.919Z,2.18
2022-12-01T21:10:20.278Z,2.23
2022-12-01T21:13:09.585Z,2.25
2022-12-01T21:15:46.348Z,2.30
2022-12-01T21:18:23.074Z,2.34
2022-12-01T21:20:55.117Z,2.35
2022-12-01T21:23:21.443Z,2.41
2022-12-01T21:25:48.964Z,2.55
2022-12-01T21:28:19.826Z,2.58
2022-12-01T21:30:47.841Z,2.56
2022-12-01T21:33:32.072Z,2.58
2022-12-01T21:36:00.732Z,2.57
2022-12-01T21:38:27.763Z,2.58
2022-12-01T21:40:54.463Z,2.58
2022-12-01T21:43:23.240Z,2.60
2022-12-01T21:46:00.255Z,2.60
2022-12-01T21:48:34.958Z,2.58
2022-12-01T21:51:06.954Z,2.62
2022-12-01T21:53:38.351Z,2.62
2022-12-01T21:56:04.878Z,2.63
2022-12-01T21:58:36.075Z,2.63
2022-12-01T22:01:14.935Z,2.64
2022-12-01T22:03:45.160Z,2.63
2022-12-01T22:06:32.203Z,2.65
2022-12-01T22:09:02.234Z,2.69
2022-12-01T22:11:30.418Z,2.70
2022-12-01T22:14:05.003Z,2.73
2022-12-01T22:16:33.749Z,2.74
2022-12-01T22:19:08.359Z,2.74
2022-12-01T22:21:39.233Z,2.74
2022-12-01T22:24:19.930Z,2.72
2022-12-01T22:26:49.330Z,2.69
2022-12-01T22:29:35.787Z,2.67
2022-12-01T22:32:26.392Z,2.64
2022-12-01T22:34:57.544Z,2.65
2022-12-01T22:37:47.002Z,2.66
2022-12-01T22:40:36.465Z,2.75
2022-12-01T22:43:18.120Z,2.69
2022-12-01T22:45:59.452Z,2.74
2022-12-01T22:48:25.799Z,2.88
2022-12-01T22:50:52.269Z,2.81
2022-12-01T22:53:24.662Z,2.73
2022-12-01T22:55:55.122Z,2.81
2022-12-01T22:58:27.548Z,2.95
2022-12-01T23:00:56.899Z,2.93
2022-12-01T23:03:24.368Z,3.12
2022-12-01T23:05:56.007Z,3.07
2022-12-01T23:08:23.656Z,2.94
2022-12-01T23:10:50.772Z,2.97
2022-12-01T23:13:22.863Z,2.86
2022-12-01T23:15:51.343Z,2.76
2022-12-01T23:18:23.778Z,2.66
2022-12-01T23:20:54.214Z,2.62
2022-12-01T23:23:31.562Z,2.57
2022-12-01T23:25:58.780Z,2.42
2022-12-01T23:28:25.117Z,2.43
2022-12-01T23:30:55.597Z,2.33
2022-12-01T23:33:24.637Z,2.34
2022-12-01T23:35:55.919Z,2.30
2022-12-01T23:38:26.090Z,2.24
2022-12-01T23:40:55.841Z,2.23
2022-12-01T23:43:28.573Z,2.20
2022-12-01T23:46:17.846Z,2.18
2022-12-01T23:48:52.333Z,2.08
2022-12-01T23:51:24.403Z,2.05
2022-12-01T23:53:53.294Z,2.00
2022-12-01T23:56:21.796Z,2.17
2022-12-01T23:58:48.877Z,2.37
